sensor_id;sensor_type;location;lat;lon;timestamp;P1;durP1;ratioP1;P2;durP2;ratioP2
37201;SDS011;37799;52.390;6.136;2022-07-04T00:01:57;2.65;;;0.70;;
37201;SDS011;37799;52.390;6.136;2022-07-04T00:04:22;3.08;;;0.73;;
37201;SDS011;37799;52.390;6.136;2022-07-04T00:06:47;2.50;;;0.50;;
37201;SDS011;37799;52.390;6.136;2022-07-04T00:09:13;3.25;;;0.60;;
37201;SDS011;37799;52.390;6.136;2022-07-04T00:11:38;2.35;;;0.50;;
37201;SDS011;37799;52.390;6.136;2022-07-04T00:14:03;1.77;;;0.50;;
37201;SDS011;37799;52.390;6.136;2022-07-04T00:16:28;1.65;;;0.35;;
37201;SDS011;37799;52.390;6.136;2022-07-04T00:18:54;1.77;;;0.43;;
37201;SDS011;37799;52.390;6.136;2022-07-04T00:21:19;2.00;;;0.35;;
37201;SDS011;37799;52.390;6.136;2022-07-04T00:23:45;3.15;;;0.68;;
37201;SDS011;37799;52.390;6.136;2022-07-04T00:26:10;1.63;;;0.40;;
37201;SDS011;37799;52.390;6.136;2022-07-04T00:28:35;3.05;;;0.50;;
37201;SDS011;37799;52.390;6.136;2022-07-04T00:31:00;1.70;;;0.38;;
37201;SDS011;37799;52.390;6.136;2022-07-04T00:33:26;1.73;;;0.47;;
37201;SDS011;37799;52.390;6.136;2022-07-04T00:35:51;2.15;;;0.55;;
37201;SDS011;37799;52.390;6.136;2022-07-04T00:38:16;3.92;;;0.43;;
37201;SDS011;37799;52.390;6.136;2022-07-04T00:40:42;2.42;;;0.40;;
37201;SDS011;37799;52.390;6.136;2022-07-04T00:43:07;2.05;;;0.50;;
37201;SDS011;37799;52.390;6.136;2022-07-04T00:45:32;2.00;;;0.52;;
37201;SDS011;37799;52.390;6.136;2022-07-04T00:47:58;2.13;;;0.63;;
37201;SDS011;37799;52.390;6.136;2022-07-04T00:50:24;2.88;;;0.60;;
37201;SDS011;37799;52.390;6.136;2022-07-04T00:52:50;3.40;;;0.90;;
37201;SDS011;37799;52.390;6.136;2022-07-04T00:55:16;2.95;;;0.60;;
37201;SDS011;37799;52.390;6.136;2022-07-04T00:57:42;1.77;;;0.52;;
37201;SDS011;37799;52.390;6.136;2022-07-04T01:00:07;2.90;;;0.77;;
37201;SDS011;37799;52.390;6.136;2022-07-04T01:02:33;3.50;;;0.75;;
37201;SDS011;37799;52.390;6.136;2022-07-04T01:04:58;2.95;;;0.75;;
37201;SDS011;37799;52.390;6.136;2022-07-04T01:07:24;4.10;;;1.00;;
37201;SDS011;37799;52.390;6.136;2022-07-04T01:09:49;4.90;;;1.10;;
37201;SDS011;37799;52.390;6.136;2022-07-04T01:12:28;4.60;;;1.00;;
37201;SDS011;37799;52.390;6.136;2022-07-04T01:14:54;3.50;;;1.00;;
37201;SDS011;37799;52.390;6.136;2022-07-04T01:17:19;3.55;;;1.00;;
37201;SDS011;37799;52.390;6.136;2022-07-04T01:19:45;4.15;;;1.00;;
37201;SDS011;37799;52.390;6.136;2022-07-04T01:22:10;3.25;;;1.00;;
37201;SDS011;37799;52.390;6.136;2022-07-04T01:24:37;4.88;;;1.00;;
37201;SDS011;37799;52.390;6.136;2022-07-04T01:27:02;2.90;;;0.75;;
37201;SDS011;37799;52.390;6.136;2022-07-04T01:29:28;11.02;;;1.42;;
37201;SDS011;37799;52.390;6.136;2022-07-04T01:31:53;2.85;;;0.90;;
37201;SDS011;37799;52.390;6.136;2022-07-04T01:34:19;2.75;;;0.75;;
37201;SDS011;37799;52.390;6.136;2022-07-04T01:36:44;3.97;;;0.80;;
37201;SDS011;37799;52.390;6.136;2022-07-04T01:39:10;7.05;;;1.30;;
37201;SDS011;37799;52.390;6.136;2022-07-04T01:41:35;5.28;;;0.93;;
37201;SDS011;37799;52.390;6.136;2022-07-04T01:44:01;3.95;;;1.00;;
37201;SDS011;37799;52.390;6.136;2022-07-04T01:46:26;4.50;;;0.90;;
37201;SDS011;37799;52.390;6.136;2022-07-04T01:48:52;3.55;;;1.08;;
37201;SDS011;37799;52.390;6.136;2022-07-04T01:51:17;3.97;;;0.93;;
37201;SDS011;37799;52.390;6.136;2022-07-04T01:53:42;3.28;;;0.90;;
37201;SDS011;37799;52.390;6.136;2022-07-04T01:56:08;3.03;;;1.00;;
37201;SDS011;37799;52.390;6.136;2022-07-04T01:58:33;2.85;;;0.93;;
37201;SDS011;37799;52.390;6.136;2022-07-04T02:00:58;7.55;;;1.40;;
37201;SDS011;37799;52.390;6.136;2022-07-04T02:03:42;3.58;;;1.17;;
37201;SDS011;37799;52.390;6.136;2022-07-04T02:06:07;9.25;;;1.38;;
37201;SDS011;37799;52.390;6.136;2022-07-04T02:08:32;4.38;;;1.20;;
37201;SDS011;37799;52.390;6.136;2022-07-04T02:11:16;4.20;;;1.17;;
37201;SDS011;37799;52.390;6.136;2022-07-04T02:13:42;4.07;;;1.52;;
37201;SDS011;37799;52.390;6.136;2022-07-04T02:16:07;4.32;;;1.20;;
37201;SDS011;37799;52.390;6.136;2022-07-04T02:18:32;3.92;;;1.20;;
37201;SDS011;37799;52.390;6.136;2022-07-04T02:20:58;4.50;;;1.27;;
37201;SDS011;37799;52.390;6.136;2022-07-04T02:23:24;4.82;;;1.23;;
37201;SDS011;37799;52.390;6.136;2022-07-04T02:25:49;4.60;;;1.23;;
37201;SDS011;37799;52.390;6.136;2022-07-04T02:28:14;4.10;;;1.20;;
37201;SDS011;37799;52.390;6.136;2022-07-04T02:30:40;3.70;;;1.20;;
37201;SDS011;37799;52.390;6.136;2022-07-04T02:33:05;5.38;;;1.55;;
37201;SDS011;37799;52.390;6.136;2022-07-04T02:35:30;3.92;;;1.15;;
37201;SDS011;37799;52.390;6.136;2022-07-04T02:37:55;5.28;;;1.40;;
37201;SDS011;37799;52.390;6.136;2022-07-04T02:40:21;4.38;;;1.30;;
37201;SDS011;37799;52.390;6.136;2022-07-04T02:42:46;3.92;;;1.10;;
37201;SDS011;37799;52.390;6.136;2022-07-04T02:45:11;4.50;;;1.33;;
37201;SDS011;37799;52.390;6.136;2022-07-04T02:47:37;6.07;;;1.10;;
37201;SDS011;37799;52.390;6.136;2022-07-04T02:50:02;5.22;;;1.20;;
37201;SDS011;37799;52.390;6.136;2022-07-04T02:52:28;4.65;;;1.38;;
37201;SDS011;37799;52.390;6.136;2022-07-04T02:54:54;4.25;;;1.35;;
37201;SDS011;37799;52.390;6.136;2022-07-04T02:57:20;4.35;;;1.55;;
37201;SDS011;37799;52.390;6.136;2022-07-04T02:59:45;4.35;;;0.95;;
37201;SDS011;37799;52.390;6.136;2022-07-04T03:02:11;5.35;;;1.30;;
37201;SDS011;37799;52.390;6.136;2022-07-04T03:04:36;4.13;;;1.10;;
37201;SDS011;37799;52.390;6.136;2022-07-04T03:07:04;3.90;;;1.42;;
37201;SDS011;37799;52.390;6.136;2022-07-04T03:09:30;5.03;;;1.40;;
37201;SDS011;37799;52.390;6.136;2022-07-04T03:11:56;5.10;;;1.42;;
37201;SDS011;37799;52.390;6.136;2022-07-04T03:14:21;3.80;;;1.05;;
37201;SDS011;37799;52.390;6.136;2022-07-04T03:16:46;5.22;;;1.42;;
37201;SDS011;37799;52.390;6.136;2022-07-04T03:19:11;5.43;;;1.25;;
37201;SDS011;37799;52.390;6.136;2022-07-04T03:21:37;3.97;;;1.08;;
37201;SDS011;37799;52.390;6.136;2022-07-04T03:24:03;4.10;;;1.40;;
37201;SDS011;37799;52.390;6.136;2022-07-04T03:26:29;3.92;;;1.23;;
37201;SDS011;37799;52.390;6.136;2022-07-04T03:28:56;5.20;;;1.63;;
37201;SDS011;37799;52.390;6.136;2022-07-04T03:31:23;4.82;;;1.23;;
37201;SDS011;37799;52.390;6.136;2022-07-04T03:33:49;4.75;;;1.30;;
37201;SDS011;37799;52.390;6.136;2022-07-04T03:36:14;4.85;;;1.30;;
37201;SDS011;37799;52.390;6.136;2022-07-04T03:38:40;5.25;;;1.48;;
37201;SDS011;37799;52.390;6.136;2022-07-04T03:41:06;4.20;;;1.10;;
37201;SDS011;37799;52.390;6.136;2022-07-04T03:43:31;5.22;;;1.60;;
37201;SDS011;37799;52.390;6.136;2022-07-04T03:45:56;4.93;;;1.48;;
37201;SDS011;37799;52.390;6.136;2022-07-04T03:48:22;3.75;;;1.10;;
37201;SDS011;37799;52.390;6.136;2022-07-04T03:50:47;5.30;;;1.45;;
37201;SDS011;37799;52.390;6.136;2022-07-04T03:53:12;4.70;;;1.30;;
37201;SDS011;37799;52.390;6.136;2022-07-04T03:55:38;4.53;;;1.33;;
37201;SDS011;37799;52.390;6.136;2022-07-04T03:58:04;5.28;;;1.48;;
37201;SDS011;37799;52.390;6.136;2022-07-04T04:00:30;6.90;;;1.40;;
37201;SDS011;37799;52.390;6.136;2022-07-04T04:02:56;6.82;;;1.45;;
37201;SDS011;37799;52.390;6.136;2022-07-04T04:05:21;5.95;;;1.45;;
37201;SDS011;37799;52.390;6.136;2022-07-04T04:07:55;5.78;;;1.70;;
37201;SDS011;37799;52.390;6.136;2022-07-04T04:10:22;5.50;;;1.38;;
37201;SDS011;37799;52.390;6.136;2022-07-04T04:12:49;6.18;;;1.70;;
37201;SDS011;37799;52.390;6.136;2022-07-04T04:15:14;5.93;;;1.50;;
37201;SDS011;37799;52.390;6.136;2022-07-04T04:17:40;5.85;;;1.50;;
37201;SDS011;37799;52.390;6.136;2022-07-04T04:20:05;4.90;;;1.55;;
37201;SDS011;37799;52.390;6.136;2022-07-04T04:22:31;5.85;;;1.88;;
37201;SDS011;37799;52.390;6.136;2022-07-04T04:24:57;6.25;;;2.22;;
37201;SDS011;37799;52.390;6.136;2022-07-04T04:27:22;5.32;;;1.73;;
37201;SDS011;37799;52.390;6.136;2022-07-04T04:29:48;6.97;;;2.53;;
37201;SDS011;37799;52.390;6.136;2022-07-04T04:32:13;5.85;;;1.77;;
37201;SDS011;37799;52.390;6.136;2022-07-04T04:34:38;4.90;;;1.73;;
37201;SDS011;37799;52.390;6.136;2022-07-04T04:37:04;5.60;;;1.85;;
37201;SDS011;37799;52.390;6.136;2022-07-04T04:39:29;5.10;;;1.58;;
37201;SDS011;37799;52.390;6.136;2022-07-04T04:41:54;8.13;;;2.00;;
37201;SDS011;37799;52.390;6.136;2022-07-04T04:44:20;6.78;;;2.08;;
37201;SDS011;37799;52.390;6.136;2022-07-04T04:46:45;5.95;;;1.83;;
37201;SDS011;37799;52.390;6.136;2022-07-04T04:49:11;5.90;;;1.85;;
37201;SDS011;37799;52.390;6.136;2022-07-04T04:51:36;5.57;;;1.73;;
37201;SDS011;37799;52.390;6.136;2022-07-04T04:54:02;6.85;;;1.60;;
37201;SDS011;37799;52.390;6.136;2022-07-04T04:56:27;8.25;;;1.52;;
37201;SDS011;37799;52.390;6.136;2022-07-04T04:58:52;5.28;;;1.50;;
37201;SDS011;37799;52.390;6.136;2022-07-04T05:01:18;4.53;;;1.67;;
37201;SDS011;37799;52.390;6.136;2022-07-04T05:03:43;5.10;;;1.65;;
37201;SDS011;37799;52.390;6.136;2022-07-04T05:06:08;6.93;;;1.92;;
37201;SDS011;37799;52.390;6.136;2022-07-04T05:08:34;5.25;;;1.50;;
37201;SDS011;37799;52.390;6.136;2022-07-04T05:10:59;6.43;;;1.27;;
37201;SDS011;37799;52.390;6.136;2022-07-04T05:13:24;4.90;;;1.55;;
37201;SDS011;37799;52.390;6.136;2022-07-04T05:15:50;6.45;;;1.50;;
37201;SDS011;37799;52.390;6.136;2022-07-04T05:18:16;4.43;;;1.40;;
37201;SDS011;37799;52.390;6.136;2022-07-04T05:20:41;5.30;;;1.52;;
37201;SDS011;37799;52.390;6.136;2022-07-04T05:23:07;6.75;;;1.88;;
37201;SDS011;37799;52.390;6.136;2022-07-04T05:25:32;6.63;;;1.45;;
37201;SDS011;37799;52.390;6.136;2022-07-04T05:27:58;5.55;;;1.30;;
37201;SDS011;37799;52.390;6.136;2022-07-04T05:30:24;5.15;;;1.40;;
37201;SDS011;37799;52.390;6.136;2022-07-04T05:32:49;5.70;;;1.20;;
37201;SDS011;37799;52.390;6.136;2022-07-04T05:35:15;4.97;;;1.40;;
37201;SDS011;37799;52.390;6.136;2022-07-04T05:37:40;4.18;;;0.80;;
37201;SDS011;37799;52.390;6.136;2022-07-04T05:40:06;4.43;;;1.20;;
37201;SDS011;37799;52.390;6.136;2022-07-04T05:42:33;3.78;;;1.13;;
37201;SDS011;37799;52.390;6.136;2022-07-04T05:44:59;5.90;;;1.10;;
37201;SDS011;37799;52.390;6.136;2022-07-04T05:47:24;2.97;;;0.80;;
37201;SDS011;37799;52.390;6.136;2022-07-04T05:49:50;2.55;;;0.73;;
37201;SDS011;37799;52.390;6.136;2022-07-04T05:52:16;4.43;;;1.20;;
37201;SDS011;37799;52.390;6.136;2022-07-04T05:54:41;5.70;;;0.98;;
37201;SDS011;37799;52.390;6.136;2022-07-04T05:57:07;5.22;;;0.90;;
37201;SDS011;37799;52.390;6.136;2022-07-04T05:59:32;3.50;;;0.93;;
37201;SDS011;37799;52.390;6.136;2022-07-04T06:01:57;4.70;;;1.08;;
37201;SDS011;37799;52.390;6.136;2022-07-04T06:04:23;4.55;;;1.00;;
37201;SDS011;37799;52.390;6.136;2022-07-04T06:06:48;5.45;;;1.13;;
37201;SDS011;37799;52.390;6.136;2022-07-04T06:09:13;2.37;;;0.60;;
37201;SDS011;37799;52.390;6.136;2022-07-04T06:11:39;3.85;;;0.88;;
37201;SDS011;37799;52.390;6.136;2022-07-04T06:14:04;4.40;;;1.00;;
37201;SDS011;37799;52.390;6.136;2022-07-04T06:16:29;3.92;;;0.80;;
37201;SDS011;37799;52.390;6.136;2022-07-04T06:18:55;3.03;;;1.00;;
37201;SDS011;37799;52.390;6.136;2022-07-04T06:21:20;3.67;;;1.10;;
37201;SDS011;37799;52.390;6.136;2022-07-04T06:23:46;4.28;;;0.93;;
37201;SDS011;37799;52.390;6.136;2022-07-04T06:26:11;3.50;;;0.93;;
37201;SDS011;37799;52.390;6.136;2022-07-04T06:28:36;4.15;;;0.80;;
37201;SDS011;37799;52.390;6.136;2022-07-04T06:31:02;4.75;;;1.08;;
37201;SDS011;37799;52.390;6.136;2022-07-04T06:33:27;2.65;;;0.80;;
37201;SDS011;37799;52.390;6.136;2022-07-04T06:35:53;3.28;;;0.63;;
37201;SDS011;37799;52.390;6.136;2022-07-04T06:38:23;3.55;;;0.80;;
37201;SDS011;37799;52.390;6.136;2022-07-04T06:40:53;3.97;;;1.00;;
37201;SDS011;37799;52.390;6.136;2022-07-04T06:43:20;4.50;;;0.90;;
37201;SDS011;37799;52.390;6.136;2022-07-04T06:45:46;4.18;;;0.88;;
37201;SDS011;37799;52.390;6.136;2022-07-04T06:48:11;4.80;;;0.90;;
37201;SDS011;37799;52.390;6.136;2022-07-04T06:50:37;4.90;;;1.08;;
37201;SDS011;37799;52.390;6.136;2022-07-04T06:53:03;3.80;;;0.70;;
37201;SDS011;37799;52.390;6.136;2022-07-04T06:55:29;4.70;;;0.60;;
37201;SDS011;37799;52.390;6.136;2022-07-04T06:57:55;4.30;;;0.75;;
37201;SDS011;37799;52.390;6.136;2022-07-04T07:00:20;2.83;;;0.50;;
37201;SDS011;37799;52.390;6.136;2022-07-04T07:02:46;2.50;;;0.93;;
37201;SDS011;37799;52.390;6.136;2022-07-04T07:05:11;4.80;;;0.70;;
37201;SDS011;37799;52.390;6.136;2022-07-04T07:07:36;5.27;;;0.90;;
37201;SDS011;37799;52.390;6.136;2022-07-04T07:10:02;6.75;;;1.15;;
37201;SDS011;37799;52.390;6.136;2022-07-04T07:12:29;2.95;;;0.45;;
37201;SDS011;37799;52.390;6.136;2022-07-04T07:14:54;1.27;;;0.30;;
37201;SDS011;37799;52.390;6.136;2022-07-04T07:17:20;2.28;;;0.30;;
37201;SDS011;37799;52.390;6.136;2022-07-04T07:19:45;4.15;;;0.43;;
37201;SDS011;37799;52.390;6.136;2022-07-04T07:22:12;2.47;;;0.32;;
37201;SDS011;37799;52.390;6.136;2022-07-04T07:24:37;2.38;;;0.60;;
37201;SDS011;37799;52.390;6.136;2022-07-04T07:27:03;1.20;;;0.35;;
37201;SDS011;37799;52.390;6.136;2022-07-04T07:29:28;3.15;;;0.50;;
37201;SDS011;37799;52.390;6.136;2022-07-04T07:31:54;7.50;;;0.50;;
37201;SDS011;37799;52.390;6.136;2022-07-04T07:34:19;2.67;;;0.55;;
37201;SDS011;37799;52.390;6.136;2022-07-04T07:36:44;4.77;;;0.40;;
37201;SDS011;37799;52.390;6.136;2022-07-04T07:39:10;2.22;;;0.40;;
37201;SDS011;37799;52.390;6.136;2022-07-04T07:41:35;1.83;;;0.40;;
37201;SDS011;37799;52.390;6.136;2022-07-04T07:44:00;4.40;;;0.67;;
37201;SDS011;37799;52.390;6.136;2022-07-04T07:46:26;3.05;;;0.52;;
37201;SDS011;37799;52.390;6.136;2022-07-04T07:48:51;2.87;;;0.40;;
37201;SDS011;37799;52.390;6.136;2022-07-04T07:51:16;4.85;;;0.52;;
37201;SDS011;37799;52.390;6.136;2022-07-04T07:53:42;1.40;;;0.40;;
37201;SDS011;37799;52.390;6.136;2022-07-04T07:56:08;2.67;;;0.40;;
37201;SDS011;37799;52.390;6.136;2022-07-04T07:58:34;3.92;;;0.60;;
37201;SDS011;37799;52.390;6.136;2022-07-04T08:00:59;2.90;;;0.40;;
37201;SDS011;37799;52.390;6.136;2022-07-04T08:03:27;5.97;;;0.60;;
37201;SDS011;37799;52.390;6.136;2022-07-04T08:06:12;5.20;;;0.57;;
37201;SDS011;37799;52.390;6.136;2022-07-04T08:08:37;3.67;;;0.47;;
37201;SDS011;37799;52.390;6.136;2022-07-04T08:11:03;4.32;;;0.52;;
37201;SDS011;37799;52.390;6.136;2022-07-04T08:13:29;2.75;;;0.50;;
37201;SDS011;37799;52.390;6.136;2022-07-04T08:15:54;9.55;;;0.85;;
37201;SDS011;37799;52.390;6.136;2022-07-04T08:18:20;3.05;;;0.45;;
37201;SDS011;37799;52.390;6.136;2022-07-04T08:20:45;1.02;;;0.30;;
37201;SDS011;37799;52.390;6.136;2022-07-04T08:23:11;2.70;;;0.40;;
37201;SDS011;37799;52.390;6.136;2022-07-04T08:25:36;2.22;;;0.43;;
37201;SDS011;37799;52.390;6.136;2022-07-04T08:28:01;3.27;;;0.40;;
37201;SDS011;37799;52.390;6.136;2022-07-04T08:30:27;1.20;;;0.35;;
37201;SDS011;37799;52.390;6.136;2022-07-04T08:32:52;3.03;;;0.50;;
37201;SDS011;37799;52.390;6.136;2022-07-04T08:35:17;1.70;;;0.60;;
37201;SDS011;37799;52.390;6.136;2022-07-04T08:37:43;1.20;;;0.30;;
37201;SDS011;37799;52.390;6.136;2022-07-04T08:40:08;1.50;;;0.32;;
37201;SDS011;37799;52.390;6.136;2022-07-04T08:42:35;1.33;;;0.30;;
37201;SDS011;37799;52.390;6.136;2022-07-04T08:45:04;1.45;;;0.30;;
37201;SDS011;37799;52.390;6.136;2022-07-04T08:47:34;2.22;;;0.40;;
37201;SDS011;37799;52.390;6.136;2022-07-04T08:52:42;2.45;;;0.32;;
37201;SDS011;37799;52.390;6.136;2022-07-04T08:55:12;2.17;;;0.40;;
37201;SDS011;37799;52.390;6.136;2022-07-04T08:57:57;5.45;;;0.98;;
37201;SDS011;37799;52.390;6.136;2022-07-04T09:00:41;2.22;;;0.43;;
37201;SDS011;37799;52.390;6.136;2022-07-04T09:03:07;2.00;;;0.40;;
37201;SDS011;37799;52.390;6.136;2022-07-04T09:05:33;2.80;;;0.22;;
37201;SDS011;37799;52.390;6.136;2022-07-04T09:07:59;3.78;;;0.28;;
37201;SDS011;37799;52.390;6.136;2022-07-04T09:10:25;4.13;;;0.40;;
37201;SDS011;37799;52.390;6.136;2022-07-04T09:12:51;1.55;;;0.20;;
37201;SDS011;37799;52.390;6.136;2022-07-04T09:15:17;2.47;;;0.30;;
37201;SDS011;37799;52.390;6.136;2022-07-04T09:17:42;1.33;;;0.43;;
37201;SDS011;37799;52.390;6.136;2022-07-04T09:20:15;3.67;;;0.50;;
37201;SDS011;37799;52.390;6.136;2022-07-04T09:22:43;3.90;;;0.50;;
37201;SDS011;37799;52.390;6.136;2022-07-04T09:25:09;1.00;;;0.20;;
37201;SDS011;37799;52.390;6.136;2022-07-04T09:27:40;1.33;;;0.30;;
37201;SDS011;37799;52.390;6.136;2022-07-04T09:30:16;1.00;;;0.30;;
37201;SDS011;37799;52.390;6.136;2022-07-04T09:32:47;1.42;;;0.20;;
37201;SDS011;37799;52.390;6.136;2022-07-04T09:35:22;1.05;;;0.38;;
37201;SDS011;37799;52.390;6.136;2022-07-04T09:37:51;3.85;;;0.30;;
37201;SDS011;37799;52.390;6.136;2022-07-04T09:40:23;1.63;;;0.20;;
37201;SDS011;37799;52.390;6.136;2022-07-04T09:42:56;3.38;;;0.32;;
37201;SDS011;37799;52.390;6.136;2022-07-04T09:45:23;3.20;;;0.40;;
37201;SDS011;37799;52.390;6.136;2022-07-04T09:47:51;0.60;;;0.20;;
37201;SDS011;37799;52.390;6.136;2022-07-04T09:50:20;1.05;;;0.30;;
37201;SDS011;37799;52.390;6.136;2022-07-04T09:57:51;0.70;;;0.20;;
37201;SDS011;37799;52.390;6.136;2022-07-04T10:02:54;1.80;;;0.30;;
37201;SDS011;37799;52.390;6.136;2022-07-04T10:05:24;1.45;;;0.20;;
37201;SDS011;37799;52.390;6.136;2022-07-04T10:07:51;2.75;;;0.20;;
37201;SDS011;37799;52.390;6.136;2022-07-04T10:10:34;1.45;;;0.20;;
37201;SDS011;37799;52.390;6.136;2022-07-04T10:13:10;1.45;;;0.20;;
37201;SDS011;37799;52.390;6.136;2022-07-04T10:15:37;3.50;;;0.30;;
37201;SDS011;37799;52.390;6.136;2022-07-04T10:18:05;0.68;;;0.20;;
37201;SDS011;37799;52.390;6.136;2022-07-04T10:20:31;1.90;;;0.20;;
37201;SDS011;37799;52.390;6.136;2022-07-04T10:22:57;3.15;;;0.43;;
37201;SDS011;37799;52.390;6.136;2022-07-04T10:25:23;1.55;;;0.30;;
37201;SDS011;37799;52.390;6.136;2022-07-04T10:27:48;5.65;;;0.20;;
37201;SDS011;37799;52.390;6.136;2022-07-04T10:30:17;2.25;;;0.52;;
37201;SDS011;37799;52.390;6.136;2022-07-04T10:32:53;1.10;;;0.22;;
37201;SDS011;37799;52.390;6.136;2022-07-04T10:38:17;1.60;;;0.30;;
37201;SDS011;37799;52.390;6.136;2022-07-04T10:40:44;2.65;;;0.45;;
37201;SDS011;37799;52.390;6.136;2022-07-04T10:48:50;1.45;;;0.30;;
37201;SDS011;37799;52.390;6.136;2022-07-04T10:56:42;1.43;;;0.30;;
37201;SDS011;37799;52.390;6.136;2022-07-04T11:01:36;1.58;;;0.20;;
37201;SDS011;37799;52.390;6.136;2022-07-04T11:04:01;0.55;;;0.17;;
37201;SDS011;37799;52.390;6.136;2022-07-04T11:11:49;4.78;;;0.40;;
37201;SDS011;37799;52.390;6.136;2022-07-04T11:14:30;0.95;;;0.20;;
37201;SDS011;37799;52.390;6.136;2022-07-04T11:17:03;1.15;;;0.20;;
37201;SDS011;37799;52.390;6.136;2022-07-04T11:19:30;0.90;;;0.15;;
37201;SDS011;37799;52.390;6.136;2022-07-04T11:21:56;0.65;;;0.20;;
37201;SDS011;37799;52.390;6.136;2022-07-04T11:24:23;1.27;;;0.10;;
37201;SDS011;37799;52.390;6.136;2022-07-04T11:26:49;0.60;;;0.10;;
37201;SDS011;37799;52.390;6.136;2022-07-04T11:29:14;1.25;;;0.20;;
37201;SDS011;37799;52.390;6.136;2022-07-04T11:31:44;1.95;;;0.20;;
37201;SDS011;37799;52.390;6.136;2022-07-04T11:34:13;0.77;;;0.17;;
37201;SDS011;37799;52.390;6.136;2022-07-04T11:36:39;0.60;;;0.13;;
37201;SDS011;37799;52.390;6.136;2022-07-04T11:39:07;0.60;;;0.10;;
37201;SDS011;37799;52.390;6.136;2022-07-04T11:41:37;0.52;;;0.10;;
37201;SDS011;37799;52.390;6.136;2022-07-04T11:44:30;1.30;;;0.10;;
37201;SDS011;37799;52.390;6.136;2022-07-04T11:47:20;1.45;;;0.50;;
37201;SDS011;37799;52.390;6.136;2022-07-04T11:49:55;1.25;;;0.20;;
37201;SDS011;37799;52.390;6.136;2022-07-04T11:52:22;0.57;;;0.10;;
37201;SDS011;37799;52.390;6.136;2022-07-04T11:54:52;0.40;;;0.00;;
37201;SDS011;37799;52.390;6.136;2022-07-04T11:57:22;0.82;;;0.10;;
37201;SDS011;37799;52.390;6.136;2022-07-04T11:59:55;0.80;;;0.10;;
37201;SDS011;37799;52.390;6.136;2022-07-04T12:02:25;1.27;;;0.20;;
37201;SDS011;37799;52.390;6.136;2022-07-04T12:04:52;0.52;;;0.10;;
37201;SDS011;37799;52.390;6.136;2022-07-04T12:07:18;1.17;;;0.28;;
37201;SDS011;37799;52.390;6.136;2022-07-04T12:09:45;0.70;;;0.10;;
37201;SDS011;37799;52.390;6.136;2022-07-04T12:12:12;2.28;;;0.15;;
37201;SDS011;37799;52.390;6.136;2022-07-04T12:14:39;1.95;;;0.10;;
37201;SDS011;37799;52.390;6.136;2022-07-04T12:19:52;0.60;;;0.10;;
37201;SDS011;37799;52.390;6.136;2022-07-04T12:22:24;39.25;;;8.20;;
37201;SDS011;37799;52.390;6.136;2022-07-04T12:24:54;5.47;;;1.48;;
37201;SDS011;37799;52.390;6.136;2022-07-04T12:27:20;2.05;;;0.10;;
37201;SDS011;37799;52.390;6.136;2022-07-04T12:29:47;1.92;;;0.20;;
37201;SDS011;37799;52.390;6.136;2022-07-04T12:32:16;0.90;;;0.10;;
37201;SDS011;37799;52.390;6.136;2022-07-04T12:34:41;0.65;;;0.20;;
37201;SDS011;37799;52.390;6.136;2022-07-04T12:37:08;0.93;;;0.20;;
37201;SDS011;37799;52.390;6.136;2022-07-04T12:39:36;0.30;;;0.10;;
37201;SDS011;37799;52.390;6.136;2022-07-04T12:42:13;2.10;;;0.17;;
37201;SDS011;37799;52.390;6.136;2022-07-04T12:44:40;4.05;;;0.20;;
37201;SDS011;37799;52.390;6.136;2022-07-04T12:47:06;0.55;;;0.10;;
37201;SDS011;37799;52.390;6.136;2022-07-04T12:49:33;0.98;;;0.20;;
37201;SDS011;37799;52.390;6.136;2022-07-04T12:54:34;1.27;;;0.10;;
37201;SDS011;37799;52.390;6.136;2022-07-04T12:57:04;0.70;;;0.10;;
37201;SDS011;37799;52.390;6.136;2022-07-04T12:59:30;0.82;;;0.10;;
37201;SDS011;37799;52.390;6.136;2022-07-04T13:01:55;5.18;;;0.40;;
37201;SDS011;37799;52.390;6.136;2022-07-04T13:04:20;1.10;;;0.20;;
37201;SDS011;37799;52.390;6.136;2022-07-04T13:06:46;2.40;;;0.20;;
37201;SDS011;37799;52.390;6.136;2022-07-04T13:09:11;5.55;;;0.20;;
37201;SDS011;37799;52.390;6.136;2022-07-04T13:11:37;0.70;;;0.10;;
37201;SDS011;37799;52.390;6.136;2022-07-04T13:14:21;0.47;;;0.10;;
37201;SDS011;37799;52.390;6.136;2022-07-04T13:16:47;1.55;;;0.20;;
37201;SDS011;37799;52.390;6.136;2022-07-04T13:19:12;1.38;;;0.20;;
37201;SDS011;37799;52.390;6.136;2022-07-04T13:21:38;0.50;;;0.10;;
37201;SDS011;37799;52.390;6.136;2022-07-04T13:24:03;0.40;;;0.05;;
37201;SDS011;37799;52.390;6.136;2022-07-04T13:26:29;0.60;;;0.17;;
37201;SDS011;37799;52.390;6.136;2022-07-04T13:28:55;1.13;;;0.20;;
37201;SDS011;37799;52.390;6.136;2022-07-04T13:31:21;0.40;;;0.10;;
37201;SDS011;37799;52.390;6.136;2022-07-04T13:33:46;1.98;;;0.10;;
37201;SDS011;37799;52.390;6.136;2022-07-04T13:36:12;0.53;;;0.10;;
37201;SDS011;37799;52.390;6.136;2022-07-04T13:38:38;2.53;;;0.10;;
37201;SDS011;37799;52.390;6.136;2022-07-04T13:41:03;2.47;;;0.17;;
37201;SDS011;37799;52.390;6.136;2022-07-04T13:43:29;0.85;;;0.10;;
37201;SDS011;37799;52.390;6.136;2022-07-04T13:45:55;0.75;;;0.10;;
37201;SDS011;37799;52.390;6.136;2022-07-04T13:48:21;0.28;;;0.10;;
37201;SDS011;37799;52.390;6.136;2022-07-04T13:50:46;0.20;;;0.07;;
37201;SDS011;37799;52.390;6.136;2022-07-04T13:53:12;2.93;;;0.10;;
37201;SDS011;37799;52.390;6.136;2022-07-04T13:55:37;0.77;;;0.10;;
37201;SDS011;37799;52.390;6.136;2022-07-04T13:58:03;1.05;;;0.10;;
37201;SDS011;37799;52.390;6.136;2022-07-04T14:00:30;0.57;;;0.10;;
37201;SDS011;37799;52.390;6.136;2022-07-04T14:02:55;1.35;;;0.10;;
37201;SDS011;37799;52.390;6.136;2022-07-04T14:05:21;0.87;;;0.10;;
37201;SDS011;37799;52.390;6.136;2022-07-04T14:07:46;2.40;;;0.20;;
37201;SDS011;37799;52.390;6.136;2022-07-04T14:10:12;1.38;;;0.20;;
37201;SDS011;37799;52.390;6.136;2022-07-04T14:12:38;0.57;;;0.10;;
37201;SDS011;37799;52.390;6.136;2022-07-04T14:15:04;0.55;;;0.10;;
37201;SDS011;37799;52.390;6.136;2022-07-04T14:17:30;0.63;;;0.13;;
37201;SDS011;37799;52.390;6.136;2022-07-04T14:19:55;1.07;;;0.10;;
37201;SDS011;37799;52.390;6.136;2022-07-04T14:22:21;1.40;;;0.17;;
37201;SDS011;37799;52.390;6.136;2022-07-04T14:24:46;2.08;;;0.30;;
37201;SDS011;37799;52.390;6.136;2022-07-04T14:27:12;0.40;;;0.20;;
37201;SDS011;37799;52.390;6.136;2022-07-04T14:29:37;0.17;;;0.00;;
37201;SDS011;37799;52.390;6.136;2022-07-04T14:32:02;2.05;;;0.15;;
37201;SDS011;37799;52.390;6.136;2022-07-04T14:34:28;0.60;;;0.10;;
37201;SDS011;37799;52.390;6.136;2022-07-04T14:36:53;0.30;;;0.10;;
37201;SDS011;37799;52.390;6.136;2022-07-04T14:39:18;1.03;;;0.20;;
37201;SDS011;37799;52.390;6.136;2022-07-04T14:41:47;0.37;;;0.07;;
37201;SDS011;37799;52.390;6.136;2022-07-04T14:44:13;0.53;;;0.10;;
37201;SDS011;37799;52.390;6.136;2022-07-04T14:46:39;0.67;;;0.10;;
37201;SDS011;37799;52.390;6.136;2022-07-04T14:49:04;1.40;;;0.10;;
37201;SDS011;37799;52.390;6.136;2022-07-04T14:51:29;1.37;;;0.10;;
37201;SDS011;37799;52.390;6.136;2022-07-04T14:53:55;0.90;;;0.10;;
37201;SDS011;37799;52.390;6.136;2022-07-04T14:56:20;0.17;;;0.10;;
37201;SDS011;37799;52.390;6.136;2022-07-04T14:58:46;0.47;;;0.10;;
37201;SDS011;37799;52.390;6.136;2022-07-04T15:01:11;0.35;;;0.10;;
37201;SDS011;37799;52.390;6.136;2022-07-04T15:03:36;1.60;;;0.20;;
37201;SDS011;37799;52.390;6.136;2022-07-04T15:06:02;0.50;;;0.10;;
37201;SDS011;37799;52.390;6.136;2022-07-04T15:08:27;0.57;;;0.10;;
37201;SDS011;37799;52.390;6.136;2022-07-04T15:10:52;0.70;;;0.10;;
37201;SDS011;37799;52.390;6.136;2022-07-04T15:13:17;4.37;;;0.20;;
37201;SDS011;37799;52.390;6.136;2022-07-04T15:15:43;1.38;;;0.10;;
37201;SDS011;37799;52.390;6.136;2022-07-04T15:18:08;0.90;;;0.20;;
37201;SDS011;37799;52.390;6.136;2022-07-04T15:20:34;1.10;;;0.20;;
37201;SDS011;37799;52.390;6.136;2022-07-04T15:23:17;1.48;;;0.20;;